Meteo Giornale » Osservazioni meteo Italia » Resia Pass

ore: 22:55 - Osservazioni Meteo Resia Pass
Lat. 46° 50' N Lon. 10° 30' E Alt. 1800 metri s.l.m.

sereno Europe/Rome

11 °C

Sereno

Temp. 24 Ore

6 °C

18 °C

Nord

3.7 Km/h

Dew point 3 °C

Umidità 57 %

Visibilità  10 Km

Il sole sorge alle ore 06:10

Il sole tramonta alle ore 20:21

Data e Ora Cielo e Fenomeni T °C DP °C Um. % Pres. hPa Vis. km Vento km/h
Oggi h: 22:55 sereno Sereno 11 3 57 1012 10 N 3.7
Oggi h: 21:55 poco_nuvoloso Poco Nuvoloso 11 6 71 1015 10 N 0
Oggi h: 19:55 sereno Sereno 14 0 38 1014 10 N 3.7
Oggi h: 18:55 sereno Sereno 17 1 33 1014 10 N 0
Oggi h: 17:55 poco_nuvoloso Poco Nuvoloso 18 -3 23 1014 10 N 5.5
Oggi h: 16:55 poco_nuvoloso Poco Nuvoloso 18 -1 27 1015 10 SO 7.4
Oggi h: 15:55 poco_nuvoloso Poco Nuvoloso 18 0 29 1015 10 N 3.7
Oggi h: 14:55 poco_nuvoloso Poco Nuvoloso 18 0 29 1017 10 S/SO 9.3
Oggi h: 13:55 poco_nuvoloso Poco Nuvoloso 17 2 36 1017 10 SO 9.3
Oggi h: 12:55 poco_nuvoloso Poco Nuvoloso 16 5 47 1018 10 S 9.3
Oggi h: 11:55 poco_nuvoloso Poco Nuvoloso 14 7 62 1018 10 S 11.1
Oggi h: 10:55 poco_nuvoloso Poco Nuvoloso 12 8 76 1018 10 S 7.4
Oggi h: 09:55 poco_nuvoloso Poco Nuvoloso 10 8 87 1018 10 N 3.7
Oggi h: 08:55 poco_nuvoloso Poco Nuvoloso 6 6 100 1018 10 N 0
Oggi h: 07:55 poco_nuvoloso Poco Nuvoloso 6 6 100 1018 10 N/NE 7.4
Oggi h: 06:55 sereno Sereno 6 6 100 1018 10 N/NE 7.4
Oggi h: 05:55 poco_nuvoloso Poco Nuvoloso 7 5 87 1018 10 N/NE 7.4
Oggi h: 03:55 nuvoloso Nuvoloso 7 6 93 1019 10 N 5.5
Oggi h: 02:55 poco_nuvoloso Poco Nuvoloso 7 6 93 1019 10 N 0
Oggi h: 01:55 sereno Sereno 7 5 87 1019 10 N 0
Oggi h: 00:55 sereno Sereno 8 5 81 1019 10 N 0
Ieri h: 23:55 sereno Sereno 9 4 70 1019 10 N 0